Terminal Aerodrome Forecast
Issued by NWS Mt. Holly, NJ

Current Version | Previous Version | Text Only | Print | Product List | Glossary On
Versions: 1 2 3 4 5 6 7 8 9 10 11 12 13 14 15 16 17 18 19 20
829
FTUS41 KPHI 111120
TAFILG
TAF
KILG 111120Z 1112/1212 24005KT P6SM BKN070
     FM111400 27008KT P6SM SCT070 SCT250
     FM112200 20005KT P6SM BKN250
     FM120100 15005KT P6SM BKN090=

USA.gov is the U.S. government's official web portal to all federal, state and local government web resources and services.